Wetterdaten: Woche 15.02.10 - 21.02.10 (KW7)
Datum Zeit Temperatur Luftfeuchte Luftdruck Niederschlag Wind Richtung Sonnenschein Solar Taupunkt Windchill Windben
15.02.2010 00:00 -3.1 C 79 % 1011.7 hPa 0.0 l/m 1.1 km/h (0 Bft) W-NW 0.00 h 0 W/m -6.2 C -3.1 C 2.5 km/h (1 Bft)
15.02.2010 01:00 -3.2 C 80 % 1011.4 hPa 0.0 l/m 0.9 km/h (0 Bft) W-NW 0.00 h 0 W/m -6.2 C -3.2 C 2.1 km/h (1 Bft)
15.02.2010 02:00 -3.3 C 81 % 1011.1 hPa 0.0 l/m 0.6 km/h (0 Bft) W-SW 0.00 h 0 W/m -6.1 C -3.3 C 1.8 km/h (1 Bft)
15.02.2010 03:00 -3.3 C 81 % 1010.6 hPa 0.0 l/m 0.4 km/h (0 Bft) W-SW 0.00 h 0 W/m -6.0 C -3.3 C 1.8 km/h (1 Bft)
15.02.2010 04:00 -3.4 C 82 % 1010.3 hPa 0.0 l/m 0.0 km/h (0 Bft) N 0.00 h 0 W/m -5.9 C -3.4 C 0.7 km/h (0 Bft)
15.02.2010 05:00 -3.5 C 83 % 1010.3 hPa 0.0 l/m 0.0 km/h (0 Bft) W-SW 0.00 h 0 W/m -5.9 C -3.5 C 0.3 km/h (0 Bft)
15.02.2010 06:00 -3.6 C 84 % 1010.1 hPa 0.0 l/m 0.0 km/h (0 Bft) W-SW 0.00 h 0 W/m -5.9 C -3.6 C 0.4 km/h (0 Bft)
15.02.2010 07:00 -3.7 C 85 % 1010.0 hPa 0.0 l/m 0.8 km/h (0 Bft) SO 0.00 h 9 W/m -5.9 C -3.7 C 1.7 km/h (1 Bft)
15.02.2010 08:00 -3.6 C 86 % 1010.0 hPa 0.0 l/m 0.1 km/h (0 Bft) SO 0.00 h 33 W/m -5.6 C -3.6 C 0.4 km/h (0 Bft)
15.02.2010 09:00 -3.0 C 85 % 1009.8 hPa 0.0 l/m 0.9 km/h (0 Bft) W 0.00 h 60 W/m -5.1 C -3.0 C 2.3 km/h (1 Bft)
15.02.2010 10:00 -2.3 C 83 % 1009.4 hPa 0.0 l/m 0.6 km/h (0 Bft) W 0.00 h 108 W/m -4.8 C -2.3 C 1.9 km/h (1 Bft)
15.02.2010 11:00 -1.8 C 79 % 1009.4 hPa 0.0 l/m 0.1 km/h (0 Bft) W 0.00 h 157 W/m -5.0 C -1.8 C 0.7 km/h (0 Bft)
15.02.2010 12:00 -1.3 C 70 % 1009.0 hPa 0.0 l/m 0.9 km/h (0 Bft) S-SO 0.00 h 151 W/m -6.1 C -1.4 C 2.1 km/h (1 Bft)
15.02.2010 13:00 -1.5 C 66 % 1008.7 hPa 0.0 l/m 2.8 km/h (1 Bft) O-SO 0.00 h 149 W/m -7.0 C -2.0 C 5.0 km/h (1 Bft)
15.02.2010 14:00 -1.1 C 64 % 1008.2 hPa 0.0 l/m 1.1 km/h (1 Bft) O-SO 0.00 h 169 W/m -7.1 C -1.2 C 2.5 km/h (1 Bft)
15.02.2010 15:00 -0.9 C 62 % 1007.8 hPa 0.0 l/m 3.1 km/h (1 Bft) SO 0.23 h 169 W/m -7.2 C -1.4 C 5.3 km/h (1 Bft)
15.02.2010 16:00 -1.4 C 62 % 1007.4 hPa 0.0 l/m 0.9 km/h (0 Bft) O-SO 0.18 h 84 W/m -7.8 C -1.5 C 2.2 km/h (1 Bft)
15.02.2010 17:00 -1.9 C 63 % 1007.2 hPa 0.0 l/m 0.4 km/h (0 Bft) NO 0.08 h 26 W/m -7.9 C -1.9 C 1.3 km/h (1 Bft)
15.02.2010 18:00 -3.6 C 69 % 1007.6 hPa 0.0 l/m 2.3 km/h (1 Bft) O 0.00 h 0 W/m -8.5 C -3.8 C 3.6 km/h (1 Bft)
15.02.2010 19:00 -5.7 C 74 % 1007.7 hPa 0.0 l/m 3.5 km/h (1 Bft) O 0.00 h 0 W/m -9.6 C -6.2 C 4.7 km/h (1 Bft)
15.02.2010 20:00 -7.4 C 79 % 1007.8 hPa 0.0 l/m 3.0 km/h (1 Bft) O 0.00 h 0 W/m -10.5 C -8.0 C 4.1 km/h (1 Bft)
15.02.2010 21:00 -7.8 C 81 % 1008.0 hPa 0.0 l/m 1.6 km/h (1 Bft) O 0.00 h 0 W/m -10.5 C -7.8 C 2.8 km/h (1 Bft)
15.02.2010 22:00 -8.5 C 83 % 1008.0 hPa 0.0 l/m 3.3 km/h (1 Bft) SO 0.00 h 0 W/m -10.9 C -9.2 C 4.6 km/h (1 Bft)
15.02.2010 23:00 -9.2 C 84 % 1007.9 hPa 0.0 l/m 2.1 km/h (1 Bft) O-SO 0.00 h 0 W/m -11.5 C -9.5 C 3.3 km/h (1 Bft)
16.02.2010 00:00 -9.7 C 85 % 1008.1 hPa 0.0 l/m 2.5 km/h (1 Bft) O-SO 0.00 h 0 W/m -11.8 C -10.0 C 3.7 km/h (1 Bft)
16.02.2010 01:00 -10.3 C 85 % 1007.9 hPa 0.0 l/m 3.0 km/h (1 Bft) O-SO 0.00 h 0 W/m -12.3 C -10.9 C 3.9 km/h (1 Bft)
16.02.2010 02:00 -10.4 C 86 % 1007.8 hPa 0.0 l/m 2.4 km/h (1 Bft) O-SO 0.00 h 0 W/m -12.3 C -10.5 C 3.6 km/h (1 Bft)
16.02.2010 03:00 -10.8 C 86 % 1007.4 hPa 0.0 l/m 1.6 km/h (1 Bft) O 0.00 h 0 W/m -12.8 C -10.8 C 3.0 km/h (1 Bft)
16.02.2010 04:00 -11.2 C 85 % 1007.0 hPa 0.0 l/m 1.4 km/h (1 Bft) O 0.00 h 0 W/m -13.1 C -11.2 C 2.4 km/h (1 Bft)
16.02.2010 05:00 -11.4 C 85 % 1006.9 hPa 0.0 l/m 1.5 km/h (1 Bft) O 0.00 h 0 W/m -13.4 C -11.4 C 2.7 km/h (1 Bft)
16.02.2010 06:00 -11.7 C 85 % 1007.0 hPa 0.0 l/m 1.3 km/h (1 Bft) O 0.00 h 0 W/m -13.7 C -11.7 C 2.5 km/h (1 Bft)
16.02.2010 07:00 -11.8 C 85 % 1006.9 hPa 0.0 l/m 1.2 km/h (1 Bft) O 0.03 h 13 W/m -13.8 C -11.8 C 1.9 km/h (1 Bft)
16.02.2010 08:00 -11.6 C 85 % 1007.2 hPa 0.0 l/m 1.6 km/h (1 Bft) O 0.00 h 65 W/m -13.6 C -11.7 C 2.5 km/h (1 Bft)
16.02.2010 09:00 -9.5 C 86 % 1007.0 hPa 0.0 l/m 0.2 km/h (0 Bft) O 0.97 h 173 W/m -11.4 C -9.5 C 0.7 km/h (0 Bft)
16.02.2010 10:00 -5.8 C 81 % 1006.4 hPa 0.0 l/m 0.7 km/h (0 Bft) O 1.00 h 315 W/m -8.5 C -5.8 C 2.0 km/h (1 Bft)
16.02.2010 11:00 -3.2 C 71 % 1005.8 hPa 0.0 l/m 1.4 km/h (1 Bft) NW 1.00 h 409 W/m -7.8 C -3.2 C 3.0 km/h (1 Bft)
16.02.2010 12:00 -0.7 C 63 % 1004.9 hPa 0.0 l/m 2.0 km/h (1 Bft) NW 1.00 h 451 W/m -6.9 C -0.7 C 3.7 km/h (1 Bft)
16.02.2010 13:00 1.7 C 57 % 1004.0 hPa 0.0 l/m 1.1 km/h (1 Bft) NW 1.00 h 442 W/m -5.9 C 1.7 C 2.7 km/h (1 Bft)
16.02.2010 14:00 1.1 C 58 % 1003.0 hPa 0.0 l/m 3.2 km/h (1 Bft) O-SO 1.00 h 378 W/m -6.3 C 0.6 C 6.2 km/h (2 Bft)
16.02.2010 15:00 0.5 C 60 % 1002.4 hPa 0.0 l/m 6.8 km/h (2 Bft) O-SO 1.00 h 274 W/m -6.5 C -1.5 C 9.9 km/h (2 Bft)
16.02.2010 16:00 -0.3 C 62 % 1002.1 hPa 0.0 l/m 6.9 km/h (2 Bft) O-SO 0.48 h 122 W/m -6.6 C -2.5 C 9.5 km/h (2 Bft)
16.02.2010 17:00 -1.2 C 67 % 1002.0 hPa 0.0 l/m 3.0 km/h (1 Bft) O-SO 0.00 h 25 W/m -6.4 C -1.6 C 4.6 km/h (1 Bft)
16.02.2010 18:00 -1.5 C 70 % 1001.9 hPa 0.0 l/m 1.8 km/h (1 Bft) O-SO 0.00 h 0 W/m -6.2 C -1.6 C 3.1 km/h (1 Bft)
16.02.2010 19:00 -1.7 C 72 % 1001.7 hPa 0.0 l/m 0.5 km/h (0 Bft) O-SO 0.00 h 0 W/m -6.1 C -1.7 C 1.0 km/h (0 Bft)
16.02.2010 20:00 -1.6 C 73 % 1001.4 hPa 0.0 l/m 0.5 km/h (0 Bft) O-SO 0.00 h 0 W/m -5.7 C -1.6 C 1.6 km/h (1 Bft)
16.02.2010 21:00 -1.5 C 74 % 1000.7 hPa 0.0 l/m 0.3 km/h (0 Bft) O-NO 0.00 h 0 W/m -5.5 C -1.5 C 0.7 km/h (0 Bft)
16.02.2010 22:00 -2.0 C 77 % 1000.2 hPa 0.0 l/m 0.2 km/h (0 Bft) O-NO 0.00 h 0 W/m -5.5 C -2.0 C 0.6 km/h (0 Bft)
16.02.2010 23:00 -2.3 C 79 % 999.3 hPa 0.0 l/m 0.0 km/h (0 Bft) N 0.00 h 0 W/m -5.4 C -2.3 C 0.2 km/h (0 Bft)
17.02.2010 00:00 -2.3 C 80 % 998.9 hPa 0.0 l/m 0.2 km/h (0 Bft) O-NO 0.00 h 0 W/m -5.2 C -2.3 C 0.5 km/h (0 Bft)
17.02.2010 01:00 -2.4 C 81 % 998.2 hPa 0.0 l/m 0.1 km/h (0 Bft) O 0.00 h 0 W/m -5.1 C -2.4 C 0.3 km/h (0 Bft)
17.02.2010 02:00 -2.4 C 83 % 997.9 hPa 0.0 l/m 0.4 km/h (0 Bft) O 0.00 h 0 W/m -5.0 C -2.4 C 1.0 km/h (0 Bft)
17.02.2010 03:00 -2.7 C 83 % 997.7 hPa 0.0 l/m 0.3 km/h (0 Bft) O 0.00 h 0 W/m -5.1 C -2.7 C 0.7 km/h (0 Bft)
17.02.2010 04:00 -2.4 C 84 % 997.2 hPa 0.0 l/m 0.1 km/h (0 Bft) O 0.00 h 0 W/m -4.7 C -2.4 C 0.7 km/h (0 Bft)
17.02.2010 05:00 -2.1 C 84 % 997.1 hPa 0.0 l/m 0.0 km/h (0 Bft) N 0.00 h 0 W/m -4.5 C -2.1 C 0.1 km/h (0 Bft)
17.02.2010 06:00 -2.0 C 84 % 996.7 hPa 0.0 l/m 0.3 km/h (0 Bft) O 0.00 h 0 W/m -4.3 C -2.0 C 0.6 km/h (0 Bft)
17.02.2010 07:00 -1.8 C 84 % 996.1 hPa 0.0 l/m 0.0 km/h (0 Bft) N 0.02 h 13 W/m -4.1 C -1.8 C 0.1 km/h (0 Bft)
17.02.2010 08:00 -1.2 C 84 % 996.1 hPa 0.0 l/m 0.1 km/h (0 Bft) SO 0.00 h 56 W/m -3.6 C -1.3 C 0.6 km/h (0 Bft)
17.02.2010 09:00 0.1 C 75 % 995.5 hPa 0.0 l/m 1.3 km/h (1 Bft) SO 0.73 h 180 W/m -3.8 C 0.0 C 3.4 km/h (1 Bft)
17.02.2010 10:00 0.9 C 69 % 995.1 hPa 0.0 l/m 3.2 km/h (1 Bft) O-SO 0.02 h 150 W/m -4.2 C 0.1 C 5.9 km/h (2 Bft)
17.02.2010 11:00 2.1 C 66 % 995.0 hPa 0.0 l/m 1.2 km/h (1 Bft) NW 0.73 h 297 W/m -3.7 C 2.1 C 3.2 km/h (1 Bft)
17.02.2010 12:00 3.9 C 60 % 994.7 hPa 0.0 l/m 2.2 km/h (1 Bft) W-NW 1.00 h 364 W/m -3.2 C 3.6 C 4.0 km/h (1 Bft)
17.02.2010 13:00 5.1 C 56 % 994.2 hPa 0.0 l/m 1.3 km/h (1 Bft) W 0.83 h 308 W/m -3.0 C 5.1 C 2.9 km/h (1 Bft)
17.02.2010 14:00 4.6 C 59 % 994.4 hPa 0.0 l/m 2.4 km/h (1 Bft) S-SO 0.00 h 149 W/m -2.7 C 4.5 C 4.6 km/h (1 Bft)
17.02.2010 15:00 4.5 C 62 % 994.6 hPa 0.0 l/m 2.3 km/h (1 Bft) S-SO 0.42 h 175 W/m -2.3 C 4.4 C 4.2 km/h (1 Bft)
17.02.2010 16:00 4.5 C 61 % 994.6 hPa 0.0 l/m 1.0 km/h (0 Bft) S 0.00 h 59 W/m -2.4 C 4.5 C 2.0 km/h (1 Bft)
17.02.2010 17:00 3.6 C 67 % 994.0 hPa 0.0 l/m 2.5 km/h (1 Bft) O-SO 0.02 h 16 W/m -1.8 C 3.4 C 4.5 km/h (1 Bft)
17.02.2010 18:00 2.7 C 71 % 994.6 hPa 0.0 l/m 1.1 km/h (1 Bft) O-SO 0.00 h 0 W/m -1.9 C 2.6 C 2.1 km/h (1 Bft)
17.02.2010 19:00 1.6 C 75 % 995.2 hPa 0.0 l/m 1.1 km/h (1 Bft) SO 0.00 h 0 W/m -2.4 C 1.5 C 2.1 km/h (1 Bft)
17.02.2010 20:00 0.7 C 78 % 995.3 hPa 0.0 l/m 0.4 km/h (0 Bft) O-SO 0.00 h 0 W/m -2.8 C 0.7 C 1.0 km/h (0 Bft)
17.02.2010 21:00 -0.1 C 81 % 995.8 hPa 0.0 l/m 1.3 km/h (1 Bft) O-SO 0.00 h 0 W/m -2.9 C -0.1 C 2.2 km/h (1 Bft)
17.02.2010 22:00 -1.0 C 84 % 996.0 hPa 0.0 l/m 3.5 km/h (1 Bft) O-SO 0.00 h 0 W/m -3.4 C -1.6 C 5.0 km/h (1 Bft)
17.02.2010 23:00 -1.1 C 85 % 996.1 hPa 0.0 l/m 3.4 km/h (1 Bft) O-SO 0.00 h 0 W/m -3.2 C -1.8 C 5.0 km/h (1 Bft)
18.02.2010 00:00 -1.1 C 85 % 996.4 hPa 0.0 l/m 2.2 km/h (1 Bft) O-SO 0.00 h 0 W/m -3.4 C -1.3 C 3.4 km/h (1 Bft)
18.02.2010 01:00 -1.1 C 86 % 996.6 hPa 0.0 l/m 1.7 km/h (1 Bft) O-SO 0.00 h 0 W/m -3.2 C -1.3 C 2.9 km/h (1 Bft)
18.02.2010 02:00 -0.7 C 86 % 997.0 hPa 0.0 l/m 0.6 km/h (0 Bft) O-SO 0.00 h 0 W/m -2.7 C -0.8 C 1.1 km/h (1 Bft)
18.02.2010 03:00 -0.4 C 86 % 997.2 hPa 0.0 l/m 1.2 km/h (1 Bft) O-SO 0.00 h 0 W/m -2.5 C -0.6 C 2.2 km/h (1 Bft)
18.02.2010 04:00 -0.1 C 87 % 997.4 hPa 0.0 l/m 0.5 km/h (0 Bft) N 0.00 h 0 W/m -2.1 C -0.1 C 1.0 km/h (0 Bft)
18.02.2010 05:00 0.0 C 89 % 997.8 hPa 0.4 l/m 0.5 km/h (0 Bft) O-SO 0.00 h 0 W/m -1.6 C 0.0 C 1.2 km/h (1 Bft)
18.02.2010 06:00 0.3 C 91 % 998.5 hPa 0.4 l/m 0.5 km/h (0 Bft) O-SO 0.00 h 0 W/m -1.1 C 0.3 C 1.3 km/h (1 Bft)
18.02.2010 07:00 0.3 C 92 % 999.2 hPa 0.2 l/m 0.0 km/h (0 Bft) N 0.00 h 6 W/m -0.9 C 0.3 C 0.1 km/h (0 Bft)
18.02.2010 08:00 0.4 C 92 % 1000.0 hPa 0.0 l/m 0.1 km/h (0 Bft) O-SO 0.00 h 23 W/m -0.7 C 0.4 C 0.1 km/h (0 Bft)
18.02.2010 09:00 0.9 C 93 % 1000.6 hPa 0.0 l/m 0.1 km/h (0 Bft) O-SO 0.00 h 71 W/m -0.0 C 0.9 C 0.2 km/h (0 Bft)
18.02.2010 10:00 1.6 C 94 % 1000.9 hPa 0.0 l/m 0.2 km/h (0 Bft) O-SO 0.00 h 82 W/m 0.8 C 1.6 C 0.9 km/h (0 Bft)
18.02.2010 11:00 2.4 C 95 % 1001.6 hPa 0.0 l/m 0.0 km/h (0 Bft) O-SO 0.00 h 132 W/m 1.6 C 2.4 C 0.3 km/h (0 Bft)
18.02.2010 12:00 3.5 C 95 % 1001.7 hPa 0.0 l/m 0.0 km/h (0 Bft) N 0.32 h 241 W/m 2.7 C 3.5 C 0.3 km/h (0 Bft)
18.02.2010 13:00 5.3 C 91 % 1001.4 hPa 0.0 l/m 0.7 km/h (0 Bft) NO 0.45 h 252 W/m 3.9 C 5.3 C 2.2 km/h (1 Bft)
18.02.2010 14:00 5.7 C 85 % 1001.1 hPa 0.0 l/m 0.7 km/h (0 Bft) N 0.00 h 123 W/m 3.3 C 5.7 C 2.1 km/h (1 Bft)
18.02.2010 15:00 5.5 C 83 % 1000.4 hPa 0.0 l/m 0.9 km/h (0 Bft) N 0.02 h 104 W/m 2.9 C 5.5 C 2.1 km/h (1 Bft)
18.02.2010 16:00 5.2 C 84 % 1000.2 hPa 0.0 l/m 0.1 km/h (0 Bft) W-NW 0.00 h 46 W/m 2.7 C 5.2 C 0.6 km/h (0 Bft)
18.02.2010 17:00 4.8 C 85 % 1000.2 hPa 0.0 l/m 0.5 km/h (0 Bft) N 0.02 h 16 W/m 2.5 C 4.8 C 1.0 km/h (0 Bft)
18.02.2010 18:00 3.9 C 86 % 1000.9 hPa 0.0 l/m 1.4 km/h (1 Bft) O-SO 0.00 h 0 W/m 1.7 C 3.7 C 2.5 km/h (1 Bft)
18.02.2010 19:00 2.4 C 89 % 1001.6 hPa 0.0 l/m 1.2 km/h (1 Bft) O-SO 0.00 h 0 W/m 0.7 C 2.1 C 1.7 km/h (1 Bft)
18.02.2010 20:00 1.7 C 91 % 1002.1 hPa 0.0 l/m 1.6 km/h (1 Bft) O-SO 0.00 h 0 W/m 0.4 C 1.5 C 2.6 km/h (1 Bft)
18.02.2010 21:00 1.0 C 92 % 1002.1 hPa 0.0 l/m 0.4 km/h (0 Bft) O-SO 0.00 h 0 W/m -0.1 C 1.0 C 1.3 km/h (1 Bft)
18.02.2010 22:00 0.6 C 94 % 1001.7 hPa 0.0 l/m 0.7 km/h (0 Bft) O-SO 0.00 h 0 W/m -0.3 C 0.5 C 1.2 km/h (1 Bft)
18.02.2010 23:00 0.3 C 95 % 1001.1 hPa 0.0 l/m 0.2 km/h (0 Bft) O-SO 0.00 h 0 W/m -0.4 C 0.3 C 0.4 km/h (0 Bft)
19.02.2010 00:00 0.4 C 96 % 1000.3 hPa 0.0 l/m 0.0 km/h (0 Bft) N 0.00 h 0 W/m -0.2 C 0.4 C 0.2 km/h (0 Bft)
19.02.2010 01:00 0.3 C 96 % 999.7 hPa 0.0 l/m 0.0 km/h (0 Bft) N 0.00 h 0 W/m -0.3 C 0.3 C 0.0 km/h (0 Bft)
19.02.2010 02:00 0.2 C 96 % 999.1 hPa 0.0 l/m 0.1 km/h (0 Bft) O-SO 0.00 h 0 W/m -0.4 C 0.2 C 0.3 km/h (0 Bft)
19.02.2010 03:00 -0.0 C 97 % 998.1 hPa 0.0 l/m 0.2 km/h (0 Bft) O-SO 0.00 h 0 W/m -0.5 C -0.0 C 0.6 km/h (0 Bft)
19.02.2010 04:00 0.0 C 97 % 996.7 hPa 0.0 l/m 0.1 km/h (0 Bft) O-SO 0.00 h 0 W/m -0.4 C 0.0 C 0.3 km/h (0 Bft)
19.02.2010 05:00 -0.1 C 97 % 995.4 hPa 0.0 l/m 0.1 km/h (0 Bft) O-SO 0.00 h 0 W/m -0.5 C -0.1 C 0.4 km/h (0 Bft)
19.02.2010 06:00 0.1 C 97 % 994.7 hPa 0.0 l/m 0.0 km/h (0 Bft) N 0.00 h 0 W/m -0.3 C 0.1 C 0.2 km/h (0 Bft)
19.02.2010 07:00 -0.1 C 98 % 994.4 hPa 0.0 l/m 0.4 km/h (0 Bft) O-SO 0.00 h 6 W/m -0.4 C -0.1 C 0.8 km/h (0 Bft)
19.02.2010 08:00 0.2 C 98 % 994.0 hPa 0.2 l/m 1.3 km/h (1 Bft) O-SO 0.00 h 14 W/m -0.1 C 0.2 C 2.7 km/h (1 Bft)
19.02.2010 09:00 0.5 C 98 % 993.9 hPa 0.6 l/m 0.0 km/h (0 Bft) O-SO 0.00 h 39 W/m 0.2 C 0.5 C 0.4 km/h (0 Bft)
19.02.2010 10:00 1.2 C 98 % 993.2 hPa 0.0 l/m 0.4 km/h (0 Bft) O-SO 0.00 h 111 W/m 0.9 C 1.2 C 1.4 km/h (1 Bft)
19.02.2010 11:00 2.1 C 98 % 992.6 hPa 0.0 l/m 0.1 km/h (0 Bft) O-SO 0.00 h 115 W/m 1.9 C 2.1 C 0.9 km/h (0 Bft)
19.02.2010 12:00 2.8 C 98 % 992.2 hPa 0.0 l/m 0.4 km/h (0 Bft) O-SO 0.00 h 79 W/m 2.5 C 2.8 C 1.4 km/h (1 Bft)
19.02.2010 13:00 3.2 C 99 % 992.1 hPa 0.4 l/m 3.7 km/h (1 Bft) O-SO 0.00 h 87 W/m 3.0 C 2.6 C 5.7 km/h (1 Bft)
19.02.2010 14:00 4.1 C 99 % 992.2 hPa 0.6 l/m 6.6 km/h (2 Bft) W 0.00 h 59 W/m 4.0 C 2.7 C 11.4 km/h (2 Bft)
19.02.2010 15:00 3.7 C 98 % 992.9 hPa 0.4 l/m 11.1 km/h (2 Bft) W 0.00 h 40 W/m 3.4 C 0.9 C 18.5 km/h (3 Bft)
19.02.2010 16:00 3.1 C 97 % 993.8 hPa 0.2 l/m 10.5 km/h (2 Bft) W 0.00 h 24 W/m 2.7 C 0.4 C 17.3 km/h (3 Bft)
19.02.2010 17:00 3.2 C 96 % 994.9 hPa 0.4 l/m 9.9 km/h (2 Bft) W 0.00 h 8 W/m 2.6 C 0.6 C 15.6 km/h (3 Bft)
19.02.2010 18:00 3.3 C 94 % 996.1 hPa 0.0 l/m 7.7 km/h (2 Bft) W-SW 0.00 h 0 W/m 2.4 C 1.3 C 11.7 km/h (2 Bft)
19.02.2010 19:00 3.3 C 92 % 997.4 hPa 0.0 l/m 6.0 km/h (2 Bft) W 0.00 h 0 W/m 2.1 C 2.0 C 9.7 km/h (2 Bft)
19.02.2010 20:00 3.2 C 89 % 998.1 hPa 0.0 l/m 8.8 km/h (2 Bft) W 0.00 h 0 W/m 1.5 C 1.0 C 13.7 km/h (3 Bft)
19.02.2010 21:00 3.1 C 83 % 998.7 hPa 0.0 l/m 14.3 km/h (3 Bft) W 0.00 h 0 W/m 0.4 C -0.5 C 21.7 km/h (4 Bft)
19.02.2010 22:00 2.8 C 81 % 999.3 hPa 0.0 l/m 13.3 km/h (3 Bft) W 0.00 h 0 W/m -0.1 C -0.6 C 20.3 km/h (4 Bft)
19.02.2010 23:00 2.7 C 80 % 999.7 hPa 0.0 l/m 12.6 km/h (3 Bft) W 0.00 h 0 W/m -0.4 C -0.6 C 19.0 km/h (3 Bft)
20.02.2010 00:00 2.3 C 81 % 1000.3 hPa 0.0 l/m 9.1 km/h (2 Bft) W 0.00 h 0 W/m -0.7 C -0.3 C 15.0 km/h (3 Bft)
20.02.2010 01:00 2.0 C 80 % 1000.8 hPa 0.0 l/m 5.1 km/h (1 Bft) W 0.00 h 0 W/m -1.1 C 0.9 C 8.3 km/h (2 Bft)
20.02.2010 02:00 1.4 C 82 % 1000.8 hPa 0.0 l/m 2.4 km/h (1 Bft) SO 0.00 h 0 W/m -1.4 C 1.2 C 3.9 km/h (1 Bft)
20.02.2010 03:00 0.7 C 85 % 1001.0 hPa 0.0 l/m 3.0 km/h (1 Bft) SO 0.00 h 0 W/m -1.6 C 0.5 C 4.6 km/h (1 Bft)
20.02.2010 04:00 0.4 C 86 % 1000.9 hPa 0.0 l/m 3.4 km/h (1 Bft) SO 0.00 h 0 W/m -1.7 C 0.1 C 5.1 km/h (1 Bft)
20.02.2010 05:00 0.4 C 87 % 1000.9 hPa 0.0 l/m 2.7 km/h (1 Bft) SO 0.00 h 0 W/m -1.5 C 0.1 C 4.3 km/h (1 Bft)
20.02.2010 06:00 0.3 C 88 % 1001.0 hPa 0.0 l/m 2.0 km/h (1 Bft) O-SO 0.00 h 0 W/m -1.4 C 0.3 C 3.5 km/h (1 Bft)
20.02.2010 07:00 0.2 C 88 % 1001.3 hPa 0.0 l/m 3.4 km/h (1 Bft) O-SO 0.00 h 7 W/m -1.5 C -0.0 C 4.5 km/h (1 Bft)
20.02.2010 08:00 0.4 C 89 % 1001.8 hPa 0.0 l/m 2.2 km/h (1 Bft) O-SO 0.15 h 57 W/m -1.2 C 0.2 C 3.6 km/h (1 Bft)
20.02.2010 09:00 1.7 C 87 % 1001.9 hPa 0.0 l/m 0.6 km/h (0 Bft) SO 0.93 h 224 W/m -0.1 C 1.7 C 1.4 km/h (1 Bft)
20.02.2010 10:00 4.1 C 74 % 1001.8 hPa 0.0 l/m 3.9 km/h (1 Bft) S-SO 0.97 h 351 W/m -0.1 C 3.6 C 6.8 km/h (2 Bft)
20.02.2010 11:00 4.4 C 67 % 1001.7 hPa 0.0 l/m 3.5 km/h (1 Bft) S-SO 0.13 h 198 W/m -1.2 C 4.1 C 6.7 km/h (2 Bft)
20.02.2010 12:00 4.9 C 50 % 1001.4 hPa 0.0 l/m 7.4 km/h (2 Bft) W 0.10 h 208 W/m -4.6 C 3.3 C 12.0 km/h (2 Bft)
20.02.2010 13:00 5.7 C 49 % 1001.1 hPa 0.0 l/m 6.6 km/h (2 Bft) SW 0.47 h 322 W/m -4.1 C 4.4 C 10.9 km/h (2 Bft)
20.02.2010 14:00 5.9 C 47 % 1000.7 hPa 0.0 l/m 5.3 km/h (1 Bft) W-NW 0.05 h 141 W/m -4.6 C 5.1 C 9.0 km/h (2 Bft)
20.02.2010 15:00 6.0 C 45 % 1000.8 hPa 0.0 l/m 7.9 km/h (2 Bft) SW 0.30 h 187 W/m -5.1 C 4.4 C 12.8 km/h (3 Bft)
20.02.2010 16:00 5.2 C 43 % 1001.0 hPa 0.0 l/m 9.5 km/h (2 Bft) SW 0.28 h 97 W/m -6.2 C 3.2 C 14.7 km/h (3 Bft)
20.02.2010 17:00 4.3 C 48 % 1001.3 hPa 0.0 l/m 4.8 km/h (1 Bft) SW 0.02 h 21 W/m -5.6 C 3.5 C 7.5 km/h (2 Bft)
20.02.2010 18:00 3.9 C 53 % 1002.0 hPa 0.0 l/m 8.2 km/h (2 Bft) W-SW 0.00 h 0 W/m -4.7 C 2.1 C 12.3 km/h (3 Bft)
20.02.2010 19:00 2.9 C 70 % 1002.8 hPa 0.0 l/m 8.2 km/h (2 Bft) W-NW 0.00 h 0 W/m -2.0 C 0.7 C 13.0 km/h (3 Bft)
20.02.2010 20:00 1.8 C 81 % 1003.5 hPa 0.0 l/m 6.4 km/h (2 Bft) W-NW 0.00 h 0 W/m -1.0 C 0.2 C 10.0 km/h (2 Bft)
20.02.2010 21:00 1.6 C 84 % 1004.1 hPa 0.0 l/m 2.0 km/h (1 Bft) W-SW 0.00 h 0 W/m -0.8 C 1.4 C 3.9 km/h (1 Bft)
20.02.2010 22:00 1.8 C 84 % 1004.6 hPa 0.0 l/m 5.0 km/h (1 Bft) SW 0.00 h 0 W/m -0.7 C 0.6 C 7.4 km/h (2 Bft)
20.02.2010 23:00 1.5 C 83 % 1004.8 hPa 0.0 l/m 2.3 km/h (1 Bft) S-SW 0.00 h 0 W/m -1.0 C 1.4 C 4.5 km/h (1 Bft)
21.02.2010 00:00 1.0 C 84 % 1005.0 hPa 0.0 l/m 4.6 km/h (1 Bft) S 0.00 h 0 W/m -1.3 C -0.0 C 7.5 km/h (2 Bft)
21.02.2010 01:00 0.7 C 85 % 1005.2 hPa 0.0 l/m 3.4 km/h (1 Bft) S 0.00 h 0 W/m -1.6 C 0.3 C 5.8 km/h (2 Bft)
21.02.2010 02:00 0.5 C 85 % 1005.6 hPa 0.0 l/m 3.1 km/h (1 Bft) SO 0.00 h 0 W/m -1.7 C 0.2 C 5.3 km/h (1 Bft)
21.02.2010 03:00 -0.2 C 86 % 1005.6 hPa 0.0 l/m 4.4 km/h (1 Bft) SO 0.00 h 0 W/m -2.2 C -1.0 C 6.2 km/h (2 Bft)
21.02.2010 04:00 -0.7 C 87 % 1005.4 hPa 0.0 l/m 3.4 km/h (1 Bft) SO 0.00 h 0 W/m -2.6 C -1.2 C 4.9 km/h (1 Bft)
21.02.2010 05:00 -0.6 C 87 % 1005.4 hPa 0.0 l/m 1.2 km/h (1 Bft) O-SO 0.00 h 0 W/m -2.5 C -0.6 C 2.3 km/h (1 Bft)
21.02.2010 06:00 -1.0 C 86 % 1005.3 hPa 0.0 l/m 1.0 km/h (0 Bft) O-SO 0.00 h 0 W/m -2.9 C -1.0 C 2.2 km/h (1 Bft)
21.02.2010 07:00 -0.3 C 85 % 1004.9 hPa 0.0 l/m 1.8 km/h (1 Bft) O-SO 0.45 h 30 W/m -2.4 C -0.5 C 3.5 km/h (1 Bft)
21.02.2010 08:00 0.7 C 81 % 1004.8 hPa 0.0 l/m 1.3 km/h (1 Bft) N-NO 0.50 h 81 W/m -2.2 C 0.7 C 3.0 km/h (1 Bft)
21.02.2010 09:00 2.3 C 75 % 1004.7 hPa 0.0 l/m 0.6 km/h (0 Bft) N-NW 0.32 h 177 W/m -1.7 C 2.3 C 1.8 km/h (1 Bft)
21.02.2010 10:00 2.9 C 76 % 1004.4 hPa 0.0 l/m 0.9 km/h (0 Bft) N-NW 0.27 h 202 W/m -0.9 C 2.9 C 2.5 km/h (1 Bft)
21.02.2010 11:00 5.4 C 67 % 1003.7 hPa 0.0 l/m 3.7 km/h (1 Bft) S-SO 1.00 h 458 W/m -0.2 C 5.0 C 6.9 km/h (2 Bft)
21.02.2010 12:00 8.2 C 53 % 1002.6 hPa 0.0 l/m 7.9 km/h (2 Bft) S 1.00 h 512 W/m -0.9 C 7.0 C 14.3 km/h (3 Bft)
21.02.2010 13:00 9.5 C 47 % 1001.7 hPa 0.0 l/m 7.9 km/h (2 Bft) S-SW 1.00 h 521 W/m -1.1 C 8.6 C 14.8 km/h (3 Bft)
21.02.2010 14:00 10.0 C 46 % 1001.0 hPa 0.0 l/m 7.9 km/h (2 Bft) S 1.00 h 411 W/m -1.2 C 9.4 C 14.4 km/h (3 Bft)
21.02.2010 15:00 9.4 C 45 % 1000.5 hPa 0.0 l/m 6.2 km/h (2 Bft) S-SW 0.57 h 202 W/m -1.8 C 8.8 C 11.3 km/h (2 Bft)
21.02.2010 16:00 8.0 C 48 % 1000.1 hPa 0.0 l/m 5.1 km/h (1 Bft) S 0.10 h 102 W/m -2.3 C 7.4 C 9.5 km/h (2 Bft)
21.02.2010 17:00 7.0 C 51 % 999.7 hPa 0.0 l/m 3.3 km/h (1 Bft) S-SO 0.25 h 31 W/m -2.5 C 6.8 C 5.5 km/h (1 Bft)
21.02.2010 18:00 5.2 C 57 % 1000.0 hPa 0.0 l/m 3.4 km/h (1 Bft) O-SO 0.00 h 0 W/m -2.7 C 4.8 C 5.0 km/h (1 Bft)
21.02.2010 19:00 3.3 C 65 % 1000.8 hPa 0.0 l/m 2.9 km/h (1 Bft) O-SO 0.00 h 0 W/m -2.6 C 2.9 C 4.3 km/h (1 Bft)
21.02.2010 20:00 1.7 C 72 % 1001.0 hPa 0.0 l/m 0.5 km/h (0 Bft) O-SO 0.00 h 0 W/m -2.8 C 1.7 C 1.0 km/h (0 Bft)
21.02.2010 21:00 0.6 C 75 % 1000.9 hPa 0.0 l/m 1.4 km/h (1 Bft) O-SO 0.00 h 0 W/m -3.3 C 0.4 C 2.0 km/h (1 Bft)
21.02.2010 22:00 0.1 C 79 % 1000.8 hPa 0.0 l/m 0.7 km/h (0 Bft) O-SO 0.00 h 0 W/m -3.1 C 0.1 C 1.4 km/h (1 Bft)
21.02.2010 23:00 -0.1 C 81 % 1000.4 hPa 0.0 l/m 2.4 km/h (1 Bft) O-SO 0.00 h 0 W/m -3.0 C -0.4 C 3.5 km/h (1 Bft)
Min-Datum _ 16.02.10 20.02.10 19.02.10 - 15.02.10 - - - 16.02.10 16.02.10 15.02.10
_ Min-Zeit 08:00 16:18 13:00 - 00:01 - - - 07:59 08:43 00:07
Minimum _ -12.2 C 41 % 992.0 hPa - 0.0 km/h (0 Bft) - - - -14.2 C -14.5 C 0.0 km/h (0 Bft)
Max-Datum _ 21.02.10 19.02.10 15.02.10 19.02.10 19.02.10 - 15.02.10 20.02.10 18.02.10 21.02.10 21.02.10
_ Max-Zeit 13:59 11:48 00:00 09:18 21:43 - 15:11 13:39 13:31 13:59 13:15
Maximum _ 10.2 C 99 % 1011.9 hPa 0.6 l/m 22.6 km/h
W (4 Bft)
- 0.02 h 615 W/m 4.2 C 10.2 C 36.5 km/h
S-SO (5 Bft)
Durchschnitt _ 0.1 C 79 % 1001.4 hPa #3.8 l/m 2.5 km/h (1 Bft) O-SO #22:24 h 70 W/m -3.3 C -0.3 C 4.3 km/h (1 Bft)
© Kaiko 2010